createdAt,value
2019-02-21T00:01:51.023Z,13.87
2019-02-21T00:04:18.919Z,13.73
2019-02-21T00:06:46.871Z,14.60
2019-02-21T00:09:14.860Z,14.17
2019-02-21T00:11:42.867Z,14.10
2019-02-21T00:14:10.954Z,13.57
2019-02-21T00:16:38.940Z,15.67
2019-02-21T00:19:06.921Z,15.33
2019-02-21T00:21:35.290Z,14.63
2019-02-21T00:24:03.554Z,13.83
2019-02-21T00:26:31.710Z,14.47
2019-02-21T00:28:59.844Z,14.37
2019-02-21T00:31:28.239Z,15.03
2019-02-21T00:33:56.379Z,15.13
2019-02-21T00:36:24.473Z,14.90
2019-02-21T00:38:52.403Z,15.57
2019-02-21T00:41:20.446Z,14.27
2019-02-21T00:43:48.432Z,14.23
2019-02-21T00:46:16.346Z,14.30
2019-02-21T00:48:44.447Z,15.83
2019-02-21T00:51:12.474Z,14.20
2019-02-21T00:53:40.457Z,15.70
2019-02-21T00:56:08.708Z,15.13
2019-02-21T00:58:36.643Z,15.20
2019-02-21T01:01:04.555Z,16.03
2019-02-21T01:03:32.496Z,15.97
2019-02-21T01:06:00.818Z,15.30
2019-02-21T01:08:28.864Z,16.47
2019-02-21T01:10:56.779Z,16.13
2019-02-21T01:13:24.836Z,16.13
2019-02-21T01:15:52.827Z,14.73
2019-02-21T01:18:20.810Z,15.20
2019-02-21T01:20:48.739Z,15.67
2019-02-21T01:23:16.717Z,15.20
2019-02-21T01:25:44.688Z,15.47
2019-02-21T01:28:13.087Z,14.80
2019-02-21T01:30:41.188Z,15.20
2019-02-21T01:33:09.495Z,15.50
2019-02-21T01:35:37.569Z,14.87
2019-02-21T01:38:05.457Z,15.97
2019-02-21T01:40:33.545Z,14.77
2019-02-21T01:43:01.593Z,15.40
2019-02-21T01:45:29.572Z,14.33
2019-02-21T01:47:57.464Z,15.17
2019-02-21T01:50:25.407Z,15.33
2019-02-21T01:52:53.343Z,14.90
2019-02-21T01:55:21.526Z,15.80
2019-02-21T01:57:49.543Z,15.37
2019-02-21T02:00:17.534Z,15.73
2019-02-21T02:02:45.721Z,14.93
2019-02-21T02:05:13.739Z,15.87
2019-02-21T02:07:42.041Z,16.30
2019-02-21T02:10:10.278Z,15.30
2019-02-21T02:12:38.333Z,15.60
2019-02-21T02:15:06.735Z,16.83
2019-02-21T02:17:35.796Z,16.73
2019-02-21T02:20:03.906Z,16.80
2019-02-21T02:22:33.247Z,17.97
2019-02-21T02:25:01.404Z,17.97
2019-02-21T02:27:29.414Z,17.23
2019-02-21T02:29:57.385Z,18.30
2019-02-21T02:32:25.301Z,18.33
2019-02-21T02:34:53.239Z,17.50
2019-02-21T02:37:21.214Z,17.50
2019-02-21T02:39:50.020Z,18.10
2019-02-21T02:42:17.948Z,17.20
2019-02-21T02:44:46.662Z,17.83
2019-02-21T02:47:14.824Z,18.47
2019-02-21T02:49:42.735Z,17.60
2019-02-21T02:52:10.656Z,17.90
2019-02-21T02:54:38.557Z,18.80
2019-02-21T02:57:06.542Z,18.57
2019-02-21T02:59:40.714Z,18.83
2019-02-21T03:02:04.183Z,18.87
2019-02-21T03:04:32.114Z,20.13
2019-02-21T03:07:00.152Z,19.70
2019-02-21T03:09:28.051Z,20.40
2019-02-21T03:11:56.003Z,19.60
2019-02-21T03:14:23.938Z,18.93
2019-02-21T03:16:51.827Z,20.77
2019-02-21T03:19:20.363Z,19.73
2019-02-21T03:21:48.339Z,19.37
2019-02-21T03:24:16.575Z,19.43
2019-02-21T03:26:44.803Z,20.27
2019-02-21T03:29:12.810Z,19.43
2019-02-21T03:31:53.580Z,19.67
2019-02-21T03:34:10.455Z,19.77
2019-02-21T03:36:38.378Z,20.60
2019-02-21T03:39:08.401Z,18.70
2019-02-21T03:41:36.297Z,20.10
2019-02-21T03:44:04.290Z,18.10
2019-02-21T03:46:32.199Z,19.33
2019-02-21T03:49:00.100Z,19.23
2019-02-21T03:51:28.098Z,20.17
2019-02-21T03:53:55.999Z,20.83
2019-02-21T03:56:24.017Z,19.97
2019-02-21T03:58:51.971Z,19.20
2019-02-21T04:01:19.906Z,20.77
2019-02-21T04:03:47.890Z,20.23
2019-02-21T04:06:15.831Z,19.30
2019-02-21T04:08:44.000Z,20.10
2019-02-21T04:11:11.907Z,21.50
2019-02-21T04:13:39.860Z,21.80
2019-02-21T04:16:07.814Z,21.03
2019-02-21T04:18:35.868Z,19.93
2019-02-21T04:21:03.948Z,20.00
2019-02-21T04:23:31.981Z,19.80
2019-02-21T04:25:59.915Z,20.33
2019-02-21T04:28:27.927Z,21.53
2019-02-21T04:30:55.908Z,19.53
2019-02-21T04:33:23.852Z,20.77
2019-02-21T04:35:51.763Z,20.80
2019-02-21T04:38:19.696Z,21.37
2019-02-21T04:40:47.627Z,20.73
2019-02-21T04:43:15.535Z,21.40
2019-02-21T04:45:43.859Z,22.87
2019-02-21T04:48:12.053Z,23.13
2019-02-21T04:50:40.370Z,22.90
2019-02-21T04:53:08.298Z,21.67
2019-02-21T04:55:36.288Z,22.33
2019-02-21T04:58:04.180Z,22.83
2019-02-21T05:00:32.139Z,24.00
2019-02-21T05:03:00.058Z,23.80
2019-02-21T05:05:28.042Z,23.80
2019-02-21T05:07:56.041Z,24.57
2019-02-21T05:10:24.039Z,22.83
2019-02-21T05:12:51.957Z,23.93
2019-02-21T05:15:19.911Z,24.93
2019-02-21T05:17:47.967Z,24.13
2019-02-21T05:20:15.933Z,25.10
2019-02-21T05:22:43.857Z,25.97
2019-02-21T05:25:11.772Z,25.53
2019-02-21T05:27:54.083Z,26.50
2019-02-21T05:30:24.550Z,24.77
2019-02-21T05:33:09.835Z,25.67
2019-02-21T05:36:03.204Z,26.23
2019-02-21T05:38:56.232Z,25.63
2019-02-21T05:41:33.036Z,26.30
2019-02-21T05:44:13.335Z,27.07
2019-02-21T05:46:54.675Z,25.90
2019-02-21T05:49:41.663Z,26.00
2019-02-21T05:52:38.135Z,26.13
2019-02-21T05:55:28.124Z,26.97
2019-02-21T05:58:20.999Z,27.10
2019-02-21T06:01:07.852Z,27.67
2019-02-21T06:03:46.483Z,27.67
2019-02-21T06:06:38.288Z,26.20
2019-02-21T06:09:13.209Z,27.80
2019-02-21T06:12:18.331Z,28.20
2019-02-21T06:15:23.402Z,28.60
2019-02-21T06:18:13.281Z,27.13
2019-02-21T06:21:01.521Z,27.37
2019-02-21T06:23:45.002Z,29.00
2019-02-21T06:26:39.556Z,29.53
2019-02-21T06:29:25.359Z,27.90
2019-02-21T06:31:53.410Z,28.77
2019-02-21T06:34:21.808Z,27.93
2019-02-21T06:36:49.831Z,29.63
2019-02-21T06:39:17.750Z,27.53
2019-02-21T06:41:45.774Z,27.93
2019-02-21T06:44:13.665Z,27.27
2019-02-21T06:46:41.593Z,28.10
2019-02-21T06:49:09.511Z,27.30
2019-02-21T06:51:37.443Z,29.13
2019-02-21T06:54:05.320Z,27.47
2019-02-21T06:56:33.235Z,28.77
2019-02-21T06:59:01.172Z,29.17
2019-02-21T07:01:29.583Z,28.47
2019-02-21T07:03:57.932Z,27.17
2019-02-21T07:06:31.834Z,27.23
2019-02-21T07:08:55.507Z,27.60
2019-02-21T07:11:25.288Z,27.63
2019-02-21T07:13:53.081Z,27.50
2019-02-21T07:16:21.020Z,26.93
2019-02-21T07:18:48.923Z,27.87
2019-02-21T07:21:16.966Z,28.40
2019-02-21T07:23:45.428Z,27.47
2019-02-21T07:26:16.121Z,27.80
2019-02-21T07:28:44.107Z,26.57
2019-02-21T07:31:12.307Z,26.90
2019-02-21T07:33:43.113Z,26.87
2019-02-21T07:36:11.223Z,27.43
2019-02-21T07:38:39.284Z,26.40
2019-02-21T07:41:07.298Z,28.30
2019-02-21T07:43:35.451Z,27.13
2019-02-21T07:46:03.762Z,27.57
2019-02-21T07:48:32.030Z,27.47
2019-02-21T07:51:03.125Z,26.00
2019-02-21T07:53:31.100Z,27.23
2019-02-21T07:56:00.247Z,28.47
2019-02-21T07:58:28.197Z,27.50
2019-02-21T08:00:56.221Z,25.87
2019-02-21T08:03:30.302Z,26.73
2019-02-21T08:05:53.912Z,25.50
2019-02-21T08:08:21.884Z,24.93
2019-02-21T08:10:50.221Z,25.67
2019-02-21T08:13:18.241Z,24.20
2019-02-21T08:15:46.562Z,24.07
2019-02-21T08:18:15.041Z,26.40
2019-02-21T08:20:43.043Z,24.30
2019-02-21T08:23:11.169Z,24.73
2019-02-21T08:25:39.151Z,23.73
2019-02-21T08:28:07.108Z,24.23
2019-02-21T08:30:35.498Z,24.27
2019-02-21T08:33:25.306Z,23.60
2019-02-21T08:35:54.167Z,23.93
2019-02-21T08:38:22.254Z,22.90
2019-02-21T08:40:53.226Z,24.00
2019-02-21T08:43:20.448Z,23.90
2019-02-21T08:45:48.454Z,22.77
2019-02-21T08:48:16.405Z,22.43
2019-02-21T08:50:44.468Z,24.03
2019-02-21T08:53:13.113Z,23.23
2019-02-21T08:55:41.122Z,23.20
2019-02-21T08:58:09.108Z,24.27
2019-02-21T09:00:37.163Z,24.10
2019-02-21T09:03:05.236Z,24.67
2019-02-21T09:05:33.395Z,22.70
2019-02-21T09:08:01.373Z,24.37
2019-02-21T09:10:29.400Z,25.07
2019-02-21T09:12:57.345Z,23.93
2019-02-21T09:15:25.276Z,24.43
2019-02-21T09:17:54.182Z,24.73
2019-02-21T09:20:22.561Z,23.87
2019-02-21T09:22:51.645Z,24.70
2019-02-21T09:25:19.965Z,24.47
2019-02-21T09:27:47.930Z,24.77
2019-02-21T09:30:16.528Z,23.87
2019-02-21T09:32:44.641Z,24.13
2019-02-21T09:35:12.835Z,23.60
2019-02-21T09:37:40.778Z,23.70
2019-02-21T09:40:10.812Z,23.47
2019-02-21T09:42:39.074Z,23.40
2019-02-21T09:45:09.428Z,22.93
2019-02-21T09:47:37.558Z,23.87
2019-02-21T09:50:06.297Z,23.17
2019-02-21T09:52:34.611Z,24.97
2019-02-21T09:55:02.570Z,24.63
2019-02-21T09:57:30.532Z,24.60
2019-02-21T09:59:58.634Z,24.33
2019-02-21T10:02:26.614Z,23.67
2019-02-21T10:05:04.421Z,23.73
2019-02-21T10:07:24.744Z,23.43
2019-02-21T10:09:53.441Z,22.27
2019-02-21T10:12:21.466Z,22.83
2019-02-21T10:14:52.211Z,24.40
2019-02-21T10:17:20.159Z,22.97
2019-02-21T10:19:48.100Z,22.43
2019-02-21T10:22:16.083Z,23.87
2019-02-21T10:24:44.008Z,24.00
2019-02-21T10:27:11.902Z,25.07
2019-02-21T10:29:40.175Z,22.17
2019-02-21T10:32:08.340Z,22.17
2019-02-21T10:34:42.969Z,21.47
2019-02-21T10:37:06.352Z,20.50
2019-02-21T10:39:34.293Z,21.13
2019-02-21T10:42:02.239Z,20.60
2019-02-21T10:44:30.299Z,20.73
2019-02-21T10:46:58.252Z,19.17
2019-02-21T10:49:26.179Z,19.30
2019-02-21T10:51:54.175Z,19.37
2019-02-21T10:54:22.208Z,19.17
2019-02-21T10:56:50.847Z,18.60
2019-02-21T10:59:18.871Z,17.87
2019-02-21T11:01:46.851Z,17.50
2019-02-21T11:04:14.848Z,19.10
2019-02-21T11:06:42.805Z,16.33
2019-02-21T11:09:16.404Z,16.37
2019-02-21T11:11:44.502Z,17.87
2019-02-21T11:14:12.710Z,18.63
2019-02-21T11:16:44.518Z,17.40
2019-02-21T11:19:12.526Z,17.27
2019-02-21T11:21:40.477Z,15.73
2019-02-21T11:24:09.933Z,16.80
2019-02-21T11:26:38.854Z,15.70
2019-02-21T11:29:07.129Z,15.03
2019-02-21T11:31:35.215Z,14.07
2019-02-21T11:34:05.042Z,14.63
2019-02-21T11:36:33.037Z,15.60
2019-02-21T11:39:01.005Z,15.30
2019-02-21T11:41:28.979Z,14.73
2019-02-21T11:43:57.016Z,14.67
2019-02-21T11:46:24.976Z,14.77
2019-02-21T11:48:52.900Z,14.93
2019-02-21T11:51:21.381Z,15.70
2019-02-21T11:53:49.534Z,14.47
2019-02-21T11:56:17.534Z,15.17
2019-02-21T11:58:45.650Z,13.93
2019-02-21T12:01:13.644Z,15.33
2019-02-21T12:03:42.378Z,14.43
2019-02-21T12:06:10.445Z,14.47
2019-02-21T12:08:39.937Z,14.33
2019-02-21T12:11:08.025Z,14.77
2019-02-21T12:13:38.130Z,15.67
2019-02-21T12:16:06.232Z,16.13
2019-02-21T12:18:37.765Z,14.67
2019-02-21T12:21:06.609Z,15.07
2019-02-21T12:23:36.060Z,15.10
2019-02-21T12:26:04.159Z,14.60
2019-02-21T12:28:33.123Z,13.57
2019-02-21T12:31:01.096Z,13.70
2019-02-21T12:33:29.080Z,15.03
2019-02-21T12:35:59.396Z,14.30
2019-02-21T12:38:26.965Z,13.60
2019-02-21T12:40:54.861Z,13.20
2019-02-21T12:43:23.040Z,13.87
2019-02-21T12:45:52.684Z,13.77
2019-02-21T12:48:20.885Z,13.37
2019-02-21T12:50:48.929Z,11.80
2019-02-21T12:53:17.023Z,11.93
2019-02-21T12:55:45.113Z,12.87
2019-02-21T12:58:13.658Z,12.97
2019-02-21T13:00:41.774Z,12.77
2019-02-21T13:03:09.815Z,13.23
2019-02-21T13:05:40.979Z,14.23
2019-02-21T13:08:07.581Z,12.73
2019-02-21T13:10:35.581Z,13.73
2019-02-21T13:13:03.534Z,13.70
2019-02-21T13:15:31.583Z,14.70
2019-02-21T13:17:59.630Z,14.27
2019-02-21T13:20:27.732Z,14.37
2019-02-21T13:22:55.814Z,14.37
2019-02-21T13:25:23.764Z,15.03
2019-02-21T13:27:52.070Z,15.80
2019-02-21T13:30:20.068Z,16.50
2019-02-21T13:32:48.059Z,16.47
2019-02-21T13:35:16.091Z,17.53
2019-02-21T13:37:44.347Z,18.10
2019-02-21T13:40:12.877Z,18.73
2019-02-21T13:42:40.854Z,20.13
2019-02-21T13:45:11.692Z,20.90
2019-02-21T13:47:39.693Z,21.07
2019-02-21T13:50:09.947Z,20.70
2019-02-21T13:52:37.973Z,23.27
2019-02-21T13:55:06.186Z,23.10
2019-02-21T13:57:34.219Z,21.60
2019-02-21T14:00:02.218Z,23.73
2019-02-21T14:02:30.195Z,23.57
2019-02-21T14:04:58.920Z,23.97
2019-02-21T14:07:27.183Z,23.77
2019-02-21T14:09:56.044Z,23.47
2019-02-21T14:12:26.415Z,24.27
2019-02-21T14:14:53.897Z,23.90
2019-02-21T14:17:22.233Z,23.60
2019-02-21T14:19:52.884Z,22.07
2019-02-21T14:22:20.023Z,24.63
2019-02-21T14:24:48.040Z,23.63
2019-02-21T14:27:16.581Z,21.50
2019-02-21T14:29:44.685Z,22.87
2019-02-21T14:32:12.729Z,22.67
2019-02-21T14:34:40.746Z,23.93
2019-02-21T14:37:10.313Z,21.23
2019-02-21T14:39:38.447Z,23.87
2019-02-21T14:42:06.475Z,22.90
2019-02-21T14:44:34.463Z,24.20
2019-02-21T14:47:02.494Z,23.10
2019-02-21T14:49:30.463Z,24.07
2019-02-21T14:51:58.781Z,24.23
2019-02-21T14:54:26.778Z,23.30
2019-02-21T14:56:54.775Z,22.97
2019-02-21T14:59:22.701Z,22.57
2019-02-21T15:01:50.659Z,23.20
2019-02-21T15:04:19.040Z,23.53
2019-02-21T15:06:47.074Z,23.40
2019-02-21T15:09:15.069Z,24.00
2019-02-21T15:11:43.084Z,23.90
2019-02-21T15:14:11.140Z,22.63
2019-02-21T15:16:39.168Z,22.97
2019-02-21T15:19:09.857Z,23.07
2019-02-21T15:21:37.872Z,23.83
2019-02-21T15:24:05.866Z,21.90
2019-02-21T15:26:33.917Z,20.70
2019-02-21T15:29:01.964Z,21.30
2019-02-21T15:31:30.070Z,20.40
2019-02-21T15:33:58.205Z,19.73
2019-02-21T15:36:37.437Z,20.10
2019-02-21T15:38:56.140Z,19.50
2019-02-21T15:41:24.283Z,19.03
2019-02-21T15:43:52.260Z,20.47
2019-02-21T15:46:20.343Z,20.53
2019-02-21T15:48:48.340Z,19.80
2019-02-21T15:51:16.420Z,18.77
2019-02-21T15:53:44.347Z,20.60
2019-02-21T15:56:12.853Z,19.33
2019-02-21T15:58:40.848Z,19.83
2019-02-21T16:01:08.755Z,20.67
2019-02-21T16:03:36.792Z,17.90
2019-02-21T16:06:04.898Z,18.60
2019-02-21T16:09:16.242Z,19.33
2019-02-21T16:12:00.389Z,19.53
2019-02-21T16:14:38.068Z,19.47
2019-02-21T16:17:22.314Z,19.27
2019-02-21T16:20:32.646Z,18.93
2019-02-21T16:23:12.159Z,19.40
2019-02-21T16:25:53.830Z,19.80
2019-02-21T16:28:22.184Z,21.10
2019-02-21T16:30:50.237Z,20.03
2019-02-21T16:33:18.344Z,20.27
2019-02-21T16:35:46.326Z,20.43
2019-02-21T16:38:14.313Z,19.27
2019-02-21T16:40:42.320Z,20.60
2019-02-21T16:43:10.293Z,19.97
2019-02-21T16:45:43.428Z,19.87
2019-02-21T16:48:07.969Z,19.23
2019-02-21T16:50:35.878Z,19.33
2019-02-21T16:53:03.780Z,20.93
2019-02-21T16:55:31.827Z,19.03
2019-02-21T16:57:59.867Z,18.73
2019-02-21T17:00:42.146Z,18.30
2019-02-21T17:28:15.741Z,19.60
2019-02-21T17:30:44.577Z,19.90
2019-02-21T17:33:12.482Z,19.53
2019-02-21T17:35:40.461Z,20.47
2019-02-21T17:38:10.642Z,20.00
2019-02-21T17:40:38.703Z,20.07
2019-02-21T17:43:07.002Z,20.97
2019-02-21T17:45:35.020Z,19.00
2019-02-21T17:48:02.979Z,19.20
2019-02-21T17:50:31.250Z,19.70
2019-02-21T17:52:59.293Z,18.93
2019-02-21T17:55:27.333Z,19.63
2019-02-21T17:57:55.544Z,18.53
2019-02-21T18:00:30.908Z,18.40
2019-02-21T18:02:59.066Z,17.47
2019-02-21T18:05:27.047Z,18.37
2019-02-21T18:07:55.075Z,16.60
2019-02-21T18:10:23.130Z,17.63
2019-02-21T18:12:51.694Z,18.00
2019-02-21T18:15:20.037Z,16.53
2019-02-21T18:17:48.326Z,16.40
2019-02-21T18:20:16.418Z,18.50
2019-02-21T18:22:44.428Z,17.17
2019-02-21T18:25:14.051Z,16.87
2019-02-21T18:27:42.131Z,16.93
2019-02-21T18:30:11.024Z,18.33
2019-02-21T18:32:41.340Z,17.03
2019-02-21T18:35:09.449Z,17.30
2019-02-21T18:37:47.000Z,16.97
2019-02-21T18:40:16.845Z,17.30
2019-02-21T18:42:38.203Z,17.07
2019-02-21T18:45:07.004Z,15.33
2019-02-21T18:47:35.096Z,17.77
2019-02-21T18:50:03.257Z,16.80
2019-02-21T18:52:31.281Z,15.40
2019-02-21T18:54:59.394Z,16.67
2019-02-21T18:57:27.376Z,16.23
2019-02-21T18:59:55.410Z,16.30
2019-02-21T19:02:23.698Z,16.57
2019-02-21T19:04:52.088Z,16.90
2019-02-21T19:07:20.110Z,15.47
2019-02-21T19:09:48.166Z,16.43
2019-02-21T19:12:16.167Z,16.70
2019-02-21T19:14:44.172Z,17.03
2019-02-21T19:17:12.234Z,17.30
2019-02-21T19:19:40.300Z,16.40
2019-02-21T19:22:08.675Z,19.00
2019-02-21T19:24:37.134Z,18.70
2019-02-21T19:27:05.589Z,18.20
2019-02-21T19:29:33.638Z,18.47
2019-02-21T19:32:02.065Z,18.57
2019-02-21T19:34:30.086Z,19.97
2019-02-21T19:36:58.061Z,18.17
2019-02-21T19:39:26.378Z,19.53
2019-02-21T19:41:54.480Z,19.80
2019-02-21T19:44:22.424Z,19.53
2019-02-21T19:46:50.655Z,18.87
2019-02-21T19:49:18.755Z,19.30
2019-02-21T19:51:46.828Z,21.77
2019-02-21T19:54:14.775Z,20.77
2019-02-21T19:56:42.813Z,19.13
2019-02-21T19:59:10.796Z,19.90
2019-02-21T20:01:38.922Z,18.83
2019-02-21T20:04:06.840Z,19.43
2019-02-21T20:06:34.860Z,18.87
2019-02-21T20:09:03.014Z,19.27
2019-02-21T20:11:31.082Z,19.13
2019-02-21T20:13:59.076Z,20.70
2019-02-21T20:16:27.181Z,18.03
2019-02-21T20:18:55.365Z,19.97
2019-02-21T20:21:23.580Z,22.00
2019-02-21T20:23:51.648Z,20.47
2019-02-21T20:26:19.694Z,20.00
2019-02-21T20:28:47.765Z,20.43
2019-02-21T20:31:15.807Z,20.13
2019-02-21T20:33:45.146Z,22.20
2019-02-21T20:36:13.202Z,22.87
2019-02-21T20:38:41.303Z,20.93
2019-02-21T20:41:09.555Z,23.03
2019-02-21T20:43:37.572Z,22.10
2019-02-21T20:46:05.645Z,23.50
2019-02-21T20:48:33.647Z,22.97
2019-02-21T20:51:01.884Z,23.27
2019-02-21T20:53:30.113Z,23.37
2019-02-21T20:55:58.090Z,23.90
2019-02-21T20:58:26.218Z,24.77
2019-02-21T21:00:54.198Z,24.90
2019-02-21T21:03:24.004Z,24.53
2019-02-21T21:05:51.953Z,26.07
2019-02-21T21:08:22.713Z,24.10
2019-02-21T21:10:50.719Z,21.53
2019-02-21T21:13:18.779Z,21.90
2019-02-21T21:15:46.842Z,23.57
2019-02-21T21:18:14.863Z,21.93
2019-02-21T21:20:42.885Z,23.57
2019-02-21T21:23:10.800Z,23.03
2019-02-21T21:25:38.891Z,22.47
2019-02-21T21:28:06.959Z,24.07
2019-02-21T21:30:34.898Z,23.30
2019-02-21T21:33:02.964Z,22.17
2019-02-21T21:35:31.042Z,22.50
2019-02-21T21:37:58.974Z,23.00
2019-02-21T21:40:26.940Z,23.33
2019-02-21T21:42:54.981Z,22.37
2019-02-21T21:45:23.015Z,21.80
2019-02-21T21:47:54.181Z,23.70
2019-02-21T21:50:25.142Z,23.00
2019-02-21T21:52:53.554Z,22.67
2019-02-21T21:55:21.504Z,22.37
2019-02-21T21:57:49.409Z,21.00
2019-02-21T22:00:18.579Z,21.37
2019-02-21T22:02:46.525Z,20.67
2019-02-21T22:05:14.650Z,22.03
2019-02-21T22:07:42.701Z,21.93
2019-02-21T22:10:11.419Z,21.70
2019-02-21T22:12:39.355Z,21.67
2019-02-21T22:15:08.077Z,22.17
2019-02-21T22:17:35.984Z,22.83
2019-02-21T22:20:04.072Z,21.10
2019-02-21T22:22:32.045Z,22.07
2019-02-21T22:24:59.962Z,21.20
2019-02-21T22:27:27.953Z,20.80
2019-02-21T22:29:55.899Z,20.77
2019-02-21T22:32:23.935Z,21.43
2019-02-21T22:34:52.392Z,20.10
2019-02-21T22:37:20.388Z,22.37
2019-02-21T22:39:48.346Z,22.63
2019-02-21T22:42:16.408Z,23.27
2019-02-21T22:44:44.557Z,22.10
2019-02-21T22:47:12.677Z,23.10
2019-02-21T22:49:40.635Z,21.97
2019-02-21T22:52:08.736Z,22.63
2019-02-21T22:54:37.778Z,22.17
2019-02-21T22:57:06.457Z,23.30
2019-02-21T22:59:34.401Z,23.30
2019-02-21T23:02:02.562Z,23.67
2019-02-21T23:04:39.562Z,23.93
2019-02-21T23:07:09.872Z,26.70
2019-02-21T23:09:37.892Z,30.27
2019-02-21T23:12:06.118Z,33.47
2019-02-21T23:14:34.041Z,33.40
2019-02-21T23:17:02.115Z,32.20
2019-02-21T23:19:30.075Z,32.07
2019-02-21T23:21:58.351Z,30.43
2019-02-21T23:24:26.380Z,29.87
2019-02-21T23:26:54.654Z,30.53
2019-02-21T23:29:22.574Z,30.70
2019-02-21T23:31:50.579Z,31.07
2019-02-21T23:34:43.771Z,35.03
2019-02-21T23:37:11.981Z,33.97
2019-02-21T23:39:39.897Z,31.37
2019-02-21T23:42:07.903Z,31.87
2019-02-21T23:44:35.816Z,32.10
2019-02-21T23:47:04.056Z,33.67
2019-02-21T23:49:32.009Z,34.03
2019-02-21T23:51:59.945Z,27.37
2019-02-21T23:54:27.831Z,24.93
2019-02-21T23:56:55.931Z,21.73
2019-02-21T23:59:24.250Z,22.23
